createdAt,value
2023-05-10T00:00:40.333Z,57.78
2023-05-10T00:01:40.351Z,57.20
2023-05-10T00:02:40.542Z,50.15
2023-05-10T00:03:40.386Z,60.76
2023-05-10T00:04:40.300Z,57.69
2023-05-10T00:05:40.309Z,55.37
2023-05-10T00:06:40.284Z,51.69
2023-05-10T00:07:40.342Z,58.11
2023-05-10T00:08:40.288Z,52.39
2023-05-10T00:09:40.281Z,56.23
2023-05-10T00:10:40.254Z,41.71
2023-05-10T00:11:40.250Z,50.22
2023-05-10T00:12:40.242Z,51.81
2023-05-10T00:13:40.247Z,46.17
2023-05-10T00:14:40.227Z,40.40
2023-05-10T00:15:40.268Z,46.52
2023-05-10T00:16:40.261Z,62.53
2023-05-10T00:17:40.230Z,60.67
2023-05-10T00:18:40.197Z,54.09
2023-05-10T00:19:40.190Z,42.04
2023-05-10T00:23:05.744Z,53.27
2023-05-10T00:24:06.820Z,58.36
2023-05-10T00:25:06.818Z,52.51
2023-05-10T00:26:06.803Z,57.95
2023-05-10T00:27:06.806Z,57.26
2023-05-10T00:28:06.787Z,62.80
2023-05-10T00:29:06.783Z,63.53
2023-05-10T00:30:06.805Z,56.43
2023-05-10T00:31:06.768Z,53.62
2023-05-10T00:32:06.796Z,46.92
2023-05-10T00:33:06.769Z,54.98
2023-05-10T00:34:06.762Z,47.58
2023-05-10T00:35:06.745Z,47.48
2023-05-10T00:36:06.736Z,57.07
2023-05-10T00:37:06.725Z,52.78
2023-05-10T00:38:06.725Z,59.22
2023-05-10T00:39:06.704Z,50.90
2023-05-10T00:40:06.688Z,61.49
2023-05-10T00:41:07.218Z,52.73
2023-05-10T00:42:06.682Z,58.60
2023-05-10T00:43:06.661Z,58.48
2023-05-10T00:44:06.655Z,50.27
2023-05-10T00:45:06.647Z,59.19
2023-05-10T00:46:06.726Z,55.42
2023-05-10T00:47:06.627Z,44.02
2023-05-10T00:48:06.706Z,51.62
2023-05-10T00:49:06.615Z,54.78
2023-05-10T00:50:06.617Z,57.77
2023-05-10T00:51:06.610Z,44.30
2023-05-10T00:52:06.592Z,57.17
2023-05-10T00:53:06.589Z,60.92
2023-05-10T00:54:06.578Z,48.98
2023-05-10T00:55:06.572Z,56.87
2023-05-10T00:56:06.575Z,62.94
2023-05-10T00:57:06.552Z,51.77
2023-05-10T00:58:06.541Z,52.75
2023-05-10T00:59:06.535Z,41.99
2023-05-10T01:00:07.527Z,45.69
2023-05-10T01:01:06.548Z,53.20
2023-05-10T01:02:06.523Z,46.26
2023-05-10T01:03:06.636Z,54.66
2023-05-10T01:04:06.519Z,56.63
2023-05-10T01:05:06.569Z,53.20
2023-05-10T01:06:06.494Z,48.02
2023-05-10T01:07:06.480Z,51.98
2023-05-10T01:08:06.464Z,53.04
2023-05-10T01:09:06.457Z,61.73
2023-05-10T01:10:06.455Z,52.18
2023-05-10T01:11:06.453Z,58.86
2023-05-10T01:12:06.530Z,56.92
2023-05-10T01:13:06.476Z,59.02
2023-05-10T01:14:06.451Z,58.02
2023-05-10T01:15:06.412Z,55.18
2023-05-10T01:16:06.468Z,55.33
2023-05-10T01:17:06.403Z,56.92
2023-05-10T01:18:06.417Z,54.93
2023-05-10T01:19:06.370Z,53.85
2023-05-10T01:20:06.379Z,59.17
2023-05-10T01:21:06.360Z,53.59
2023-05-10T01:22:06.353Z,59.88
2023-05-10T01:23:06.350Z,61.65
2023-05-10T01:24:06.335Z,55.66
2023-05-10T01:25:06.326Z,56.40
2023-05-10T01:26:06.322Z,65.62
2023-05-10T01:27:06.306Z,56.45
2023-05-10T01:28:06.329Z,55.18
2023-05-10T01:29:06.291Z,52.02
2023-05-10T01:30:15.612Z,55.18
2023-05-10T01:31:08.302Z,60.37
2023-05-10T01:32:07.128Z,56.46
2023-05-10T01:33:06.328Z,59.18
2023-05-10T01:34:06.260Z,52.08
2023-05-10T01:35:06.237Z,61.84
2023-05-10T01:36:06.237Z,52.97
2023-05-10T01:37:06.237Z,54.72
2023-05-10T01:38:06.231Z,44.52
2023-05-10T01:39:06.210Z,54.30
2023-05-10T01:40:06.210Z,56.21
2023-05-10T01:41:06.182Z,55.90
2023-05-10T01:42:07.195Z,59.08
2023-05-10T01:43:06.184Z,55.89
2023-05-10T01:44:06.183Z,53.70
2023-05-10T01:45:06.170Z,53.76
2023-05-10T01:46:06.154Z,53.77
2023-05-10T01:47:06.149Z,54.62
2023-05-10T01:48:06.173Z,50.54
2023-05-10T01:49:06.149Z,44.86
2023-05-10T01:50:06.121Z,47.90
2023-05-10T01:51:06.108Z,55.73
2023-05-10T01:52:06.106Z,44.87
2023-05-10T01:53:06.098Z,61.72
2023-05-10T01:54:06.093Z,56.13
2023-05-10T01:55:06.078Z,50.73
2023-05-10T01:56:06.069Z,47.17
2023-05-10T01:57:06.065Z,52.14
2023-05-10T01:58:06.063Z,52.44
2023-05-10T01:59:06.079Z,52.73
2023-05-10T02:00:06.633Z,55.31
2023-05-10T02:01:06.123Z,57.46
2023-05-10T02:02:06.020Z,49.66
2023-05-10T02:03:06.150Z,47.05
2023-05-10T02:04:06.041Z,47.56
2023-05-10T02:05:06.002Z,62.32
2023-05-10T02:06:05.991Z,54.98
2023-05-10T02:07:05.984Z,55.20
2023-05-10T02:08:05.982Z,58.16
2023-05-10T02:09:06.006Z,54.56
2023-05-10T02:10:05.978Z,48.36
2023-05-10T02:11:05.957Z,55.54
2023-05-10T02:12:05.943Z,57.45
2023-05-10T02:13:05.966Z,55.98
2023-05-10T02:14:05.928Z,53.94
2023-05-10T02:15:05.919Z,53.31
2023-05-10T02:16:05.977Z,51.89
2023-05-10T02:17:05.900Z,53.48
2023-05-10T02:18:05.942Z,52.65
2023-05-10T02:19:05.885Z,54.34
2023-05-10T02:20:06.710Z,55.98
2023-05-10T02:21:05.867Z,58.42
2023-05-10T02:22:05.863Z,60.99
2023-05-10T02:23:05.870Z,54.92
2023-05-10T02:24:05.842Z,54.03
2023-05-10T02:25:06.100Z,60.69
2023-05-10T02:26:05.832Z,52.94
2023-05-10T02:27:05.832Z,49.34
2023-05-10T02:28:05.814Z,58.52
2023-05-10T02:29:05.829Z,58.56
2023-05-10T02:30:05.817Z,52.78
2023-05-10T02:31:05.810Z,49.50
2023-05-10T02:32:05.803Z,61.80
2023-05-10T02:33:05.782Z,59.19
2023-05-10T02:34:05.754Z,59.96
2023-05-10T02:35:06.779Z,57.16
2023-05-10T02:36:05.773Z,58.18
2023-05-10T02:37:05.736Z,54.35
2023-05-10T02:38:05.747Z,57.74
2023-05-10T02:39:05.742Z,58.68
2023-05-10T02:40:05.756Z,48.50
2023-05-10T02:41:05.718Z,53.57
2023-05-10T02:42:05.732Z,59.59
2023-05-10T02:43:05.695Z,53.22
2023-05-10T02:44:05.680Z,58.39
2023-05-10T02:45:05.679Z,57.30
2023-05-10T02:46:05.781Z,53.30
2023-05-10T02:47:05.645Z,61.87
2023-05-10T02:48:06.662Z,61.28
2023-05-10T02:49:05.652Z,60.02
2023-05-10T02:50:05.658Z,60.43
2023-05-10T02:51:05.639Z,52.40
2023-05-10T02:52:06.224Z,56.48
2023-05-10T02:53:05.625Z,54.03
2023-05-10T02:54:05.614Z,60.58
2023-05-10T02:55:05.584Z,62.43
2023-05-10T02:56:05.616Z,57.89
2023-05-10T02:57:05.621Z,59.46
2023-05-10T02:58:05.578Z,61.82
2023-05-10T02:59:05.553Z,57.58
2023-05-10T03:00:05.558Z,59.12
2023-05-10T03:01:06.182Z,51.82
2023-05-10T03:02:05.525Z,59.67
2023-05-10T03:03:05.584Z,60.83
2023-05-10T03:04:05.604Z,60.22
2023-05-10T03:05:05.512Z,62.94
2023-05-10T03:06:05.505Z,59.54
2023-05-10T03:07:05.489Z,61.01
2023-05-10T03:08:05.482Z,59.29
2023-05-10T03:09:05.478Z,58.03
2023-05-10T03:10:05.515Z,62.17
2023-05-10T03:11:05.495Z,60.32
2023-05-10T03:12:05.510Z,59.97
2023-05-10T03:13:05.476Z,63.20
2023-05-10T03:14:05.447Z,60.26
2023-05-10T03:15:05.452Z,52.05
2023-05-10T03:16:05.576Z,59.24
2023-05-10T03:17:05.425Z,62.19
2023-05-10T03:18:05.428Z,55.96
2023-05-10T03:19:05.389Z,60.20
2023-05-10T03:20:05.386Z,62.74
2023-05-10T03:21:05.398Z,60.45
2023-05-10T03:22:05.388Z,64.35
2023-05-10T03:23:05.366Z,60.48
2023-05-10T03:24:05.365Z,60.44
2023-05-10T03:25:05.371Z,59.99
2023-05-10T03:26:05.358Z,60.78
2023-05-10T03:27:05.373Z,62.62
2023-05-10T03:28:05.341Z,56.24
2023-05-10T03:29:05.332Z,56.50
2023-05-10T03:30:05.312Z,61.13
2023-05-10T03:31:05.336Z,60.81
2023-05-10T03:32:05.292Z,60.85
2023-05-10T03:33:05.318Z,58.69
2023-05-10T03:34:05.284Z,60.36
2023-05-10T03:35:05.269Z,63.52
2023-05-10T03:36:05.275Z,62.10
2023-05-10T03:37:06.177Z,63.97
2023-05-10T03:38:05.255Z,66.86
2023-05-10T03:39:05.229Z,62.88
2023-05-10T03:40:06.245Z,61.04
2023-05-10T03:41:05.767Z,58.01
2023-05-10T03:42:05.225Z,60.97
2023-05-10T03:43:05.225Z,61.51
2023-05-10T03:44:05.210Z,62.49
2023-05-10T03:45:05.203Z,61.37
2023-05-10T03:46:05.212Z,60.61
2023-05-10T03:47:05.205Z,61.76
2023-05-10T03:48:05.241Z,62.76
2023-05-10T03:49:05.182Z,62.41
2023-05-10T03:50:05.163Z,64.09
2023-05-10T03:51:05.675Z,65.07
2023-05-10T03:52:05.142Z,63.55
2023-05-10T03:53:05.150Z,65.75
2023-05-10T03:54:05.126Z,62.50
2023-05-10T03:55:05.148Z,62.19
2023-05-10T03:56:05.113Z,63.53
2023-05-10T03:57:05.109Z,63.72
2023-05-10T03:58:05.112Z,58.49
2023-05-10T03:59:05.096Z,61.38
2023-05-10T04:00:05.088Z,61.35
2023-05-10T04:01:05.076Z,62.76
2023-05-10T04:02:05.068Z,64.88
2023-05-10T04:03:05.157Z,63.51
2023-05-10T04:04:05.051Z,63.85
2023-05-10T04:05:05.036Z,60.48
2023-05-10T04:06:05.882Z,63.51
2023-05-10T04:07:05.027Z,59.48
2023-05-10T04:08:05.017Z,63.28
2023-05-10T04:09:05.673Z,58.14
2023-05-10T04:10:05.000Z,64.81
2023-05-10T04:11:05.022Z,63.49
2023-05-10T04:12:05.011Z,66.56
2023-05-10T04:13:05.090Z,65.95
2023-05-10T04:14:04.972Z,64.69
2023-05-10T04:15:05.008Z,60.93
2023-05-10T04:16:05.216Z,57.28
2023-05-10T04:17:05.002Z,62.45
2023-05-10T04:18:06.631Z,64.03
2023-05-10T04:19:04.927Z,66.76
2023-05-10T04:20:05.741Z,66.19
2023-05-10T04:21:04.926Z,63.92
2023-05-10T04:22:04.923Z,63.65
2023-05-10T04:23:04.906Z,66.85
2023-05-10T04:24:04.900Z,65.40
2023-05-10T04:25:05.050Z,64.23
2023-05-10T04:26:04.863Z,65.95
2023-05-10T04:27:04.900Z,63.16
2023-05-10T04:28:04.859Z,62.08
2023-05-10T04:29:04.849Z,66.52
2023-05-10T04:30:04.832Z,65.72
2023-05-10T04:31:06.754Z,63.60
2023-05-10T04:32:04.849Z,66.60
2023-05-10T04:33:05.749Z,63.67
2023-05-10T04:34:05.760Z,64.38
2023-05-10T04:35:04.798Z,68.57
2023-05-10T04:36:04.801Z,66.23
2023-05-10T04:37:04.823Z,64.07
2023-05-10T04:38:04.788Z,66.57
2023-05-10T04:39:04.794Z,66.53
2023-05-10T04:40:04.753Z,69.85
2023-05-10T04:41:04.862Z,64.28
2023-05-10T04:42:04.745Z,64.39
2023-05-10T04:43:04.735Z,64.15
2023-05-10T04:44:04.728Z,67.00
2023-05-10T04:45:04.780Z,64.21
2023-05-10T04:46:04.750Z,63.69
2023-05-10T04:47:04.704Z,66.44
2023-05-10T04:48:04.799Z,64.37
2023-05-10T04:49:04.701Z,67.89
2023-05-10T04:50:04.706Z,68.90
2023-05-10T04:51:05.738Z,64.31
2023-05-10T04:52:04.667Z,62.59
2023-05-10T04:53:04.668Z,63.79
2023-05-10T04:54:06.427Z,66.52
2023-05-10T04:55:05.653Z,66.60
2023-05-10T04:56:04.623Z,66.20
2023-05-10T04:57:04.619Z,66.50
2023-05-10T04:58:04.623Z,62.99
2023-05-10T04:59:04.606Z,65.87
2023-05-10T05:00:04.594Z,65.71
2023-05-10T05:01:04.593Z,64.82
2023-05-10T05:02:04.685Z,65.38
2023-05-10T05:03:04.653Z,66.43
2023-05-10T05:04:05.263Z,68.04
2023-05-10T05:05:04.560Z,67.24
2023-05-10T05:06:04.566Z,66.03
2023-05-10T05:07:04.547Z,65.04
2023-05-10T05:08:04.528Z,66.24
2023-05-10T05:09:04.532Z,65.98
2023-05-10T05:10:04.537Z,64.04
2023-05-10T05:11:04.511Z,66.14
2023-05-10T05:12:04.500Z,66.27
2023-05-10T05:13:04.528Z,67.52
2023-05-10T05:14:04.507Z,67.87
2023-05-10T05:15:04.475Z,65.79
2023-05-10T05:16:04.524Z,67.01
2023-05-10T05:17:04.470Z,66.48
2023-05-10T05:18:04.459Z,64.99
2023-05-10T05:19:05.465Z,65.18
2023-05-10T05:20:05.265Z,67.74
2023-05-10T05:21:04.434Z,66.23
2023-05-10T05:22:04.444Z,68.63
2023-05-10T05:23:04.448Z,67.21
2023-05-10T05:24:04.472Z,66.94
2023-05-10T05:25:04.441Z,66.16
2023-05-10T05:26:04.410Z,67.70
2023-05-10T05:27:05.182Z,67.80
2023-05-10T05:28:04.393Z,65.31
2023-05-10T05:29:04.376Z,68.25
2023-05-10T05:30:04.401Z,66.82
2023-05-10T05:31:04.377Z,67.65
2023-05-10T05:32:04.648Z,68.39
2023-05-10T05:33:04.406Z,67.52
2023-05-10T05:34:04.342Z,69.17
2023-05-10T05:35:04.330Z,67.28
2023-05-10T05:36:04.405Z,68.31
2023-05-10T05:37:04.332Z,68.99
2023-05-10T05:38:04.294Z,68.59
2023-05-10T05:39:05.301Z,67.65
2023-05-10T05:40:04.286Z,64.90
2023-05-10T05:41:04.267Z,66.29
2023-05-10T05:42:04.256Z,67.40
2023-05-10T05:43:04.262Z,65.77
2023-05-10T05:44:04.255Z,69.22
2023-05-10T05:45:04.290Z,67.25
2023-05-10T05:46:04.239Z,69.81
2023-05-10T05:47:04.224Z,67.59
2023-05-10T05:48:04.225Z,67.34
2023-05-10T05:49:04.199Z,64.59
2023-05-10T05:50:04.201Z,66.79
2023-05-10T05:51:07.089Z,65.64
2023-05-10T05:52:04.181Z,68.90
2023-05-10T05:53:04.183Z,66.75
2023-05-10T05:54:04.819Z,66.63
2023-05-10T05:55:04.179Z,66.70
2023-05-10T05:56:04.140Z,67.68
2023-05-10T05:57:04.139Z,67.10
2023-05-10T05:58:05.119Z,68.64
2023-05-10T05:59:05.127Z,66.96
2023-05-10T06:00:04.133Z,68.11
2023-05-10T06:01:04.109Z,70.69
2023-05-10T06:02:04.147Z,65.53
2023-05-10T06:03:04.249Z,64.82
2023-05-10T06:04:04.199Z,67.41
2023-05-10T06:05:04.103Z,66.07
2023-05-10T06:06:04.070Z,65.45
2023-05-10T06:07:04.064Z,65.44
2023-05-10T06:08:04.056Z,64.13
2023-05-10T06:09:04.047Z,64.90
2023-05-10T06:10:04.053Z,66.18
2023-05-10T06:11:04.034Z,66.30
2023-05-10T06:12:04.018Z,64.04
2023-05-10T06:13:04.096Z,65.73
2023-05-10T06:14:03.999Z,65.60
2023-05-10T06:15:07.025Z,64.69
2023-05-10T06:16:04.018Z,65.69
2023-05-10T06:17:04.022Z,66.48
2023-05-10T06:18:04.075Z,67.86
2023-05-10T06:19:03.975Z,63.95
2023-05-10T06:20:03.987Z,65.83
2023-05-10T06:21:03.956Z,68.88
2023-05-10T06:22:03.954Z,68.32
2023-05-10T06:23:03.962Z,63.94
2023-05-10T06:24:04.708Z,65.05
2023-05-10T06:25:04.168Z,65.71
2023-05-10T06:26:03.913Z,65.88
2023-05-10T06:27:03.916Z,65.04
2023-05-10T06:28:03.912Z,65.29
2023-05-10T06:29:03.886Z,66.02
2023-05-10T06:30:15.099Z,66.24
2023-05-10T06:31:05.885Z,66.52
2023-05-10T06:32:03.857Z,64.84
2023-05-10T06:33:03.898Z,64.55
2023-05-10T06:34:03.855Z,67.30
2023-05-10T06:35:03.846Z,70.42
2023-05-10T06:36:03.823Z,66.56
2023-05-10T06:37:03.819Z,63.67
2023-05-10T06:38:03.812Z,62.40
2023-05-10T06:39:03.802Z,63.61
2023-05-10T06:40:03.848Z,64.70
2023-05-10T06:41:03.783Z,65.82
2023-05-10T06:42:03.780Z,64.13
2023-05-10T06:43:03.780Z,65.89
2023-05-10T06:44:03.769Z,64.19
2023-05-10T06:45:03.792Z,62.85
2023-05-10T06:46:03.776Z,64.40
2023-05-10T06:47:05.695Z,64.37
2023-05-10T06:48:03.819Z,63.22
2023-05-10T06:49:03.740Z,62.70
2023-05-10T06:50:03.709Z,64.28
2023-05-10T06:51:04.710Z,63.87
2023-05-10T06:52:03.722Z,63.74
2023-05-10T06:53:03.700Z,65.99
2023-05-10T06:54:03.674Z,67.65
2023-05-10T06:55:03.801Z,64.58
2023-05-10T06:56:04.536Z,67.47
2023-05-10T06:57:10.770Z,67.85
2023-05-10T06:58:04.654Z,63.81
2023-05-10T06:59:03.645Z,64.59
2023-05-10T07:00:03.703Z,66.01
2023-05-10T07:01:03.704Z,64.56
2023-05-10T07:02:05.367Z,67.72
2023-05-10T07:03:03.655Z,65.13
2023-05-10T07:04:03.596Z,65.68
2023-05-10T07:05:03.771Z,64.55
2023-05-10T07:06:03.587Z,64.93
2023-05-10T07:07:03.583Z,63.78
2023-05-10T07:08:03.612Z,63.90
2023-05-10T07:09:03.568Z,66.42
2023-05-10T07:10:03.557Z,66.36
2023-05-10T07:11:03.563Z,64.23
2023-05-10T07:12:03.588Z,63.78
2023-05-10T07:13:03.613Z,68.34
2023-05-10T07:14:03.542Z,66.90
2023-05-10T07:15:03.547Z,64.48
2023-05-10T07:16:03.578Z,65.91
2023-05-10T07:17:03.572Z,64.81
2023-05-10T07:18:03.532Z,65.79
2023-05-10T07:19:03.476Z,65.71
2023-05-10T07:20:03.479Z,66.89
2023-05-10T07:21:03.492Z,64.82
2023-05-10T07:22:03.471Z,64.48
2023-05-10T07:23:03.491Z,63.00
2023-05-10T07:24:03.526Z,64.25
2023-05-10T07:25:03.425Z,64.71
2023-05-10T07:26:03.424Z,64.72
2023-05-10T07:27:03.411Z,62.19
2023-05-10T07:28:04.412Z,63.98
2023-05-10T07:29:03.393Z,63.69
2023-05-10T07:30:03.553Z,63.82
2023-05-10T07:31:03.446Z,64.14
2023-05-10T07:32:03.419Z,64.91
2023-05-10T07:33:03.420Z,63.43
2023-05-10T07:34:03.359Z,64.00
2023-05-10T07:35:03.387Z,64.79
2023-05-10T07:36:03.362Z,65.68
2023-05-10T07:37:03.360Z,63.58
2023-05-10T07:38:03.321Z,66.03
2023-05-10T07:39:03.312Z,65.04
2023-05-10T07:40:03.290Z,62.89
2023-05-10T07:41:04.406Z,64.28
2023-05-10T07:42:03.282Z,62.09
2023-05-10T07:43:03.318Z,63.53
2023-05-10T07:44:03.270Z,63.17
2023-05-10T07:45:03.284Z,62.51
2023-05-10T07:46:03.271Z,64.19
2023-05-10T07:47:03.246Z,63.90
2023-05-10T07:48:03.292Z,62.79
2023-05-10T07:49:04.318Z,62.83
2023-05-10T07:50:03.253Z,64.71
2023-05-10T07:51:03.233Z,65.10
2023-05-10T07:52:03.210Z,66.28
2023-05-10T07:53:03.193Z,63.82
2023-05-10T07:54:03.236Z,64.37
2023-05-10T07:55:03.184Z,66.45
2023-05-10T07:56:03.226Z,64.00
2023-05-10T07:57:03.221Z,63.21
2023-05-10T07:58:03.185Z,66.17
2023-05-10T07:59:03.161Z,63.63
2023-05-10T08:00:03.156Z,63.74
2023-05-10T08:01:03.159Z,64.85
2023-05-10T08:02:03.163Z,64.34
2023-05-10T08:03:03.288Z,64.23
2023-05-10T08:04:03.472Z,64.58
2023-05-10T08:05:03.099Z,65.10
2023-05-10T08:06:03.112Z,67.90
2023-05-10T08:07:03.098Z,62.40
2023-05-10T08:08:03.087Z,64.08
2023-05-10T08:09:03.073Z,64.47
2023-05-10T08:10:03.080Z,64.25
2023-05-10T08:11:03.071Z,62.82
2023-05-10T08:12:03.058Z,64.46
2023-05-10T08:13:03.078Z,65.11
2023-05-10T08:14:03.041Z,64.09
2023-05-10T08:15:03.031Z,63.90
2023-05-10T08:16:03.156Z,63.82
2023-05-10T08:17:03.023Z,67.38
2023-05-10T08:18:03.292Z,63.41
2023-05-10T08:19:03.230Z,61.84
2023-05-10T08:20:03.015Z,62.86
2023-05-10T08:21:02.996Z,62.98
2023-05-10T08:22:02.999Z,64.35
2023-05-10T08:23:02.969Z,67.77
2023-05-10T08:24:02.992Z,64.93
2023-05-10T08:25:03.188Z,64.82
2023-05-10T08:26:02.974Z,65.41
2023-05-10T08:27:02.936Z,61.52
2023-05-10T08:28:02.918Z,64.03
2023-05-10T08:29:02.919Z,64.60
2023-05-10T08:30:02.960Z,67.39
2023-05-10T08:31:02.945Z,65.82
2023-05-10T08:32:02.902Z,64.37
2023-05-10T08:33:02.923Z,64.07
2023-05-10T08:34:02.873Z,65.72
2023-05-10T08:35:02.882Z,67.71
2023-05-10T08:36:02.861Z,65.48
2023-05-10T08:37:02.846Z,65.60
2023-05-10T08:38:02.858Z,62.54
2023-05-10T08:39:02.854Z,65.54
2023-05-10T08:40:02.831Z,65.68
2023-05-10T08:41:02.837Z,64.46
2023-05-10T08:42:02.814Z,63.21
2023-05-10T08:43:02.806Z,62.00
2023-05-10T08:44:02.810Z,66.49
2023-05-10T08:45:02.823Z,62.22
2023-05-10T08:46:02.787Z,64.94
2023-05-10T08:47:02.857Z,63.95
2023-05-10T08:48:02.832Z,65.81
2023-05-10T08:49:02.757Z,65.16
2023-05-10T08:50:02.858Z,66.04
2023-05-10T08:51:02.753Z,65.46
2023-05-10T08:52:02.739Z,66.07
2023-05-10T08:53:02.769Z,66.30
2023-05-10T08:55:49.844Z,65.27
2023-05-10T08:56:50.009Z,62.90
2023-05-10T08:57:49.833Z,64.13
2023-05-10T08:58:49.832Z,65.13
2023-05-10T08:59:49.831Z,65.12
2023-05-10T09:00:50.972Z,64.64
2023-05-10T09:01:50.894Z,66.65
2023-05-10T09:02:50.908Z,65.80
2023-05-10T09:03:50.920Z,66.78
2023-05-10T09:04:50.958Z,68.47
2023-05-10T09:05:50.868Z,66.39
2023-05-10T09:06:50.841Z,66.28
2023-05-10T09:07:50.839Z,65.98
2023-05-10T09:08:50.832Z,64.31
2023-05-10T09:09:50.850Z,64.74
2023-05-10T09:10:50.815Z,65.32
2023-05-10T09:11:50.841Z,65.28
2023-05-10T09:12:50.798Z,67.26
2023-05-10T09:13:50.796Z,66.12
2023-05-10T09:14:50.782Z,65.33
2023-05-10T09:15:50.802Z,63.02
2023-05-10T09:16:50.800Z,64.39
2023-05-10T09:17:50.815Z,64.43
2023-05-10T09:18:50.906Z,64.41
2023-05-10T09:19:50.826Z,63.94
2023-05-10T09:20:50.742Z,67.30
2023-05-10T09:21:50.730Z,65.67
2023-05-10T09:22:50.746Z,64.35
2023-05-10T09:23:50.704Z,66.33
2023-05-10T09:24:50.705Z,63.85
2023-05-10T09:25:50.715Z,64.18
2023-05-10T09:26:50.684Z,66.51
2023-05-10T09:27:50.673Z,65.68
2023-05-10T09:28:50.661Z,64.64
2023-05-10T09:29:50.665Z,63.71
2023-05-10T09:30:50.677Z,66.04
2023-05-10T09:31:50.649Z,63.41
2023-05-10T09:32:50.707Z,65.32
2023-05-10T09:33:50.630Z,65.04
2023-05-10T09:34:50.620Z,62.80
2023-05-10T09:35:50.621Z,63.47
2023-05-10T09:36:50.590Z,62.21
2023-05-10T09:37:51.622Z,62.83
2023-05-10T09:38:50.586Z,64.41
2023-05-10T09:39:50.599Z,63.64
2023-05-10T09:40:50.587Z,63.82
2023-05-10T09:41:50.566Z,63.75
2023-05-10T09:42:50.569Z,63.76
2023-05-10T09:43:50.565Z,64.21
2023-05-10T09:44:50.546Z,63.23
2023-05-10T09:45:50.545Z,63.66
2023-05-10T09:46:50.523Z,64.86
2023-05-10T09:47:50.578Z,61.23
2023-05-10T09:48:50.542Z,64.23
2023-05-10T09:49:50.521Z,64.95
2023-05-10T09:50:50.499Z,63.56
2023-05-10T09:51:50.491Z,63.54
2023-05-10T09:52:50.487Z,64.72
2023-05-10T09:53:50.538Z,62.42
2023-05-10T09:54:50.467Z,64.91
2023-05-10T09:55:50.478Z,63.75
2023-05-10T09:56:50.519Z,61.48
2023-05-10T09:57:50.464Z,65.41
2023-05-10T09:58:50.430Z,63.30
2023-05-10T09:59:50.436Z,64.13
2023-05-10T10:00:50.432Z,64.75
2023-05-10T10:01:50.547Z,63.97
2023-05-10T10:02:50.586Z,66.73
2023-05-10T10:03:51.444Z,62.05
2023-05-10T10:04:50.585Z,63.18
2023-05-10T10:05:50.410Z,62.57
2023-05-10T10:06:50.441Z,63.59
2023-05-10T10:07:50.372Z,65.28
2023-05-10T10:08:50.361Z,62.00
2023-05-10T10:09:50.424Z,63.46
2023-05-10T10:10:53.167Z,63.39
2023-05-10T10:11:50.338Z,63.34
2023-05-10T10:12:50.326Z,64.01
2023-05-10T10:13:50.328Z,62.96
2023-05-10T10:14:50.334Z,63.00
2023-05-10T10:15:50.373Z,63.82
2023-05-10T10:17:05.732Z,63.94
2023-05-10T10:17:52.322Z,64.30
2023-05-10T10:18:50.324Z,65.97
2023-05-10T10:19:50.271Z,65.98
2023-05-10T10:20:50.653Z,65.23
2023-05-10T10:21:52.104Z,66.25
2023-05-10T10:22:50.246Z,65.17
2023-05-10T10:23:50.243Z,63.19
2023-05-10T10:24:50.238Z,64.32
2023-05-10T10:25:50.232Z,64.84
2023-05-10T10:26:50.257Z,64.69
2023-05-10T10:27:50.264Z,65.41
2023-05-10T10:28:50.289Z,64.88
2023-05-10T10:29:50.217Z,64.78
2023-05-10T10:30:50.211Z,65.09
2023-05-10T10:31:50.242Z,64.76
2023-05-10T10:32:50.250Z,64.59
2023-05-10T10:33:50.164Z,62.43
2023-05-10T10:34:51.051Z,64.00
2023-05-10T10:35:50.154Z,66.02
2023-05-10T10:36:50.151Z,64.57
2023-05-10T10:37:50.130Z,65.55
2023-05-10T10:38:50.144Z,63.45
2023-05-10T10:39:50.117Z,62.44
2023-05-10T10:40:50.112Z,63.73
2023-05-10T10:41:50.103Z,61.74
2023-05-10T10:42:50.102Z,64.60
2023-05-10T10:43:50.087Z,65.29
2023-05-10T10:44:50.082Z,62.64
2023-05-10T10:45:50.071Z,62.98
2023-05-10T10:46:50.091Z,65.91
2023-05-10T10:47:50.132Z,63.33
2023-05-10T10:48:50.049Z,63.92
2023-05-10T10:49:50.035Z,63.20
2023-05-10T10:50:50.074Z,62.78
2023-05-10T10:51:50.036Z,64.23
2023-05-10T10:52:50.046Z,65.37
2023-05-10T10:53:50.018Z,64.46
2023-05-10T10:54:50.003Z,64.55
2023-05-10T10:55:50.086Z,64.36
2023-05-10T10:56:49.991Z,64.94
2023-05-10T10:57:49.990Z,65.26
2023-05-10T10:58:49.986Z,65.39
2023-05-10T10:59:49.991Z,64.47
2023-05-10T11:00:50.016Z,66.22
2023-05-10T11:01:50.509Z,65.30
2023-05-10T11:02:50.055Z,64.61
2023-05-10T11:03:49.970Z,67.29
2023-05-10T11:04:50.261Z,66.04
2023-05-10T11:05:49.946Z,64.63
2023-05-10T11:06:49.960Z,63.90
2023-05-10T11:07:49.901Z,64.54
2023-05-10T11:08:50.899Z,64.07
2023-05-10T11:09:49.897Z,63.69
2023-05-10T11:10:49.900Z,65.00
2023-05-10T11:11:49.886Z,64.96
2023-05-10T11:12:49.876Z,63.70
2023-05-10T11:13:51.406Z,65.22
2023-05-10T11:14:51.547Z,63.80
2023-05-10T11:15:49.862Z,62.81
2023-05-10T11:16:49.926Z,65.35
2023-05-10T11:17:50.570Z,64.58
2023-05-10T11:18:50.334Z,67.56
2023-05-10T11:19:50.810Z,68.95
2023-05-10T11:20:49.787Z,66.81
2023-05-10T11:21:50.837Z,65.22
2023-05-10T11:22:49.783Z,63.87
2023-05-10T11:23:49.796Z,65.16
2023-05-10T11:24:50.206Z,65.54
2023-05-10T11:25:50.783Z,64.86
2023-05-10T11:26:49.763Z,64.20
2023-05-10T11:27:50.761Z,64.45
2023-05-10T11:28:50.562Z,63.49
2023-05-10T11:29:49.754Z,62.77
2023-05-10T11:30:49.772Z,64.53
2023-05-10T11:31:49.724Z,62.39
2023-05-10T11:32:49.739Z,62.80
2023-05-10T11:33:49.719Z,63.96
2023-05-10T11:34:49.699Z,63.17
2023-05-10T11:35:49.689Z,60.03
2023-05-10T11:36:49.692Z,64.58
2023-05-10T11:37:49.708Z,69.22
2023-05-10T11:38:50.670Z,60.99
2023-05-10T11:39:49.673Z,64.54
2023-05-10T11:40:49.657Z,62.32
2023-05-10T11:41:49.664Z,65.37
2023-05-10T11:42:49.668Z,62.86
2023-05-10T11:43:49.651Z,63.29
2023-05-10T11:44:49.630Z,60.43
2023-05-10T11:45:49.650Z,62.17
2023-05-10T11:46:49.696Z,62.51
2023-05-10T11:47:49.696Z,60.87
2023-05-10T11:48:49.613Z,63.38
2023-05-10T11:49:49.582Z,63.19
2023-05-10T11:50:49.578Z,64.47
2023-05-10T11:51:49.587Z,62.91
2023-05-10T11:52:49.578Z,63.20
2023-05-10T11:53:49.571Z,63.23
2023-05-10T11:54:49.555Z,63.04
2023-05-10T11:55:50.155Z,64.41
2023-05-10T11:56:50.030Z,62.66
2023-05-10T11:57:49.538Z,64.34
2023-05-10T11:58:49.514Z,63.78
2023-05-10T11:59:49.507Z,66.05
2023-05-10T12:00:51.156Z,65.26
2023-05-10T12:01:49.514Z,65.78
2023-05-10T12:02:49.539Z,64.00
2023-05-10T12:03:51.343Z,64.53
2023-05-10T12:04:49.563Z,64.13
2023-05-10T12:05:49.463Z,62.60
2023-05-10T12:06:49.538Z,64.33
2023-05-10T12:07:49.465Z,66.23
2023-05-10T12:08:49.459Z,63.42
2023-05-10T12:09:50.092Z,62.37
2023-05-10T12:10:49.458Z,61.57
2023-05-10T12:11:49.410Z,61.20
2023-05-10T12:12:49.421Z,63.96
2023-05-10T12:13:49.399Z,63.53
2023-05-10T12:14:49.429Z,65.28
2023-05-10T12:15:49.425Z,62.90
2023-05-10T12:16:50.448Z,65.74
2023-05-10T12:17:49.445Z,63.93
2023-05-10T12:18:49.475Z,64.42
2023-05-10T12:19:49.350Z,66.61
2023-05-10T12:20:49.348Z,65.15
2023-05-10T12:21:49.347Z,65.48
2023-05-10T12:22:49.348Z,64.43
2023-05-10T12:23:49.327Z,61.56
2023-05-10T12:24:49.327Z,63.11
2023-05-10T12:25:49.306Z,62.75
2023-05-10T12:26:49.313Z,63.59
2023-05-10T12:27:50.174Z,66.34
2023-05-10T12:28:49.288Z,65.77
2023-05-10T12:29:49.289Z,62.37
2023-05-10T12:30:49.269Z,64.68
2023-05-10T12:31:50.211Z,62.50
2023-05-10T12:32:50.303Z,63.82
2023-05-10T12:33:49.279Z,63.27
2023-05-10T12:34:49.236Z,64.05
2023-05-10T12:35:49.224Z,62.23
2023-05-10T12:36:49.217Z,62.82
2023-05-10T12:37:49.218Z,63.79
2023-05-10T12:38:50.177Z,61.19
2023-05-10T12:39:49.222Z,65.82
2023-05-10T12:40:49.268Z,63.45
2023-05-10T12:41:51.211Z,62.96
2023-05-10T12:42:49.270Z,64.34
2023-05-10T12:43:49.274Z,63.52
2023-05-10T12:44:49.186Z,62.87
2023-05-10T12:45:49.211Z,63.15
2023-05-10T12:46:49.282Z,63.56
2023-05-10T12:47:49.184Z,63.06
2023-05-10T12:48:49.760Z,62.51
2023-05-10T12:49:49.172Z,63.77
2023-05-10T12:50:51.122Z,64.45
2023-05-10T12:51:49.106Z,63.49
2023-05-10T12:52:49.110Z,64.68
2023-05-10T12:53:49.718Z,62.95
2023-05-10T12:54:50.093Z,65.51
2023-05-10T12:55:49.078Z,61.64
2023-05-10T12:56:50.068Z,66.55